Het weer levert geen direct gevaar op.    Er zijn geen waarschuwingen afgegeven.








webcam  webcam


webcam 2   webcam 2


Onweer radar Meer informatie blitzortung!


Regen radar Meer informatie rain snow radar


Bezoek onze andere website:

Template documentation
and downloads

And another site

weerstation wsnoordbergum

weerstationlembeke



METAR rapporten vliegvelden

   
EHAM - Amsterdam
Gewijzigd: 20-07-2019 22:25
Helder  
Helder  
   Wind: ZW 25.9 km/h
Wind: ZW 25.9 km/h
Temperatuur: 19°C
Dauwpunt: 15°C
Vochtigheid: 78%
Barometer: 1011 hPa
Zicht: meer dan 10 km
Bewolking: Helder
EHAM 202025Z 23014KT CAVOK 19/15 Q1011 NOSIG
EHRD - Rotterdam
Gewijzigd: 20-07-2019 22:25
Helder  
Helder  
   Wind: ZW 25.9 km/h
Wind: ZW 25.9 km/h
Temperatuur: 19°C
Dauwpunt: 15°C
Vochtigheid: 78%
Barometer: 1012 hPa
Bewolking: Helder
Zicht: meer dan 10 km
Bewolking: Helder
EHRD 202025Z AUTO 23014KT 200V260 9999 NCD 19/15 Q1012 NOSIG
EHLW - Leeuwarden
Gewijzigd: 20-07-2019 22:47
Gedeeltelijk bewolkt  
Gedeeltelijk bewolkt  
   Wind: ZW 14.8 km/h
Wind: ZW 14.8 km/h
Temperatuur: 18°C
Dauwpunt: 16°C
Vochtigheid: 88%
Barometer: 1011 hPa
Bewolking: Gedeeltelijk bewolkt
Zicht: meer dan 10 km
Bewolking: Gedeeltelijk bewolkt 1600 ft
EHLW 202047Z AUTO 22008KT 9999 SCT016 18/16 Q1011 WHT
EHGG - Groningen
Gewijzigd: 20-07-2019 22:25
Helder  
Helder  
   Wind: ZW 14.8 km/h
Wind: ZW 14.8 km/h
Temperatuur: 18°C
Dauwpunt: 14°C
Vochtigheid: 78%
Barometer: 1011 hPa
Bewolking: Helder
Zicht: meer dan 10 km
Bewolking: Helder
EHGG 202025Z AUTO 23008KT 9999 NCD 18/14 Q1011 NOSIG
  

Script ontwikkeld door  Saratoga-weather.org Aangepast voor de template door  Weerstation Leuven

U vindt ons ook hier:

Het Weer Aktueel

European Weather Network

WeatherCloud

Weather Underground

AWEKAS

HAMweather, WeatherForYou, PWS Weather

Apparatuur in gebruik:

Weerstation
Davis VP2

Weerprogramma
Meteobridge

Weercomputer
Asus WL -330N3G

Webleverancier
Hostnet

Davis VP2

Meteobridge

Asus WL -330N3G

Hostnet